createdAt,value
2022-09-09T00:00:17.078Z,18.50
2022-09-09T00:02:22.485Z,18.50
2022-09-09T00:04:30.514Z,18.50
2022-09-09T00:06:36.420Z,18.40
2022-09-09T00:08:47.463Z,18.50
2022-09-09T00:10:56.351Z,18.40
2022-09-09T00:13:07.710Z,18.40
2022-09-09T00:15:15.955Z,18.40
2022-09-09T00:17:32.647Z,18.30
2022-09-09T00:19:43.801Z,18.30
2022-09-09T00:21:54.016Z,18.30
2022-09-09T00:23:57.832Z,18.30
2022-09-09T00:26:08.668Z,18.20
2022-09-09T00:28:19.359Z,18.30
2022-09-09T00:30:24.892Z,18.30
2022-09-09T00:32:32.455Z,18.30
2022-09-09T00:34:38.373Z,18.30
2022-09-09T00:36:42.039Z,18.30
2022-09-09T00:38:50.180Z,18.20
2022-09-09T00:40:55.430Z,18.20
2022-09-09T00:43:17.451Z,18.20
2022-09-09T00:45:51.445Z,18.20
2022-09-09T00:47:55.773Z,18.20
2022-09-09T00:50:03.656Z,18.20
2022-09-09T00:52:25.368Z,18.20
2022-09-09T00:54:41.297Z,18.20
2022-09-09T00:56:52.105Z,18.20
2022-09-09T00:59:05.105Z,18.20
2022-09-09T01:01:12.866Z,18.20
2022-09-09T01:03:25.532Z,18.20
2022-09-09T01:05:37.627Z,18.20
2022-09-09T01:07:42.293Z,18.20
2022-09-09T01:09:54.563Z,18.20
2022-09-09T01:12:04.028Z,18.10
2022-09-09T01:14:19.408Z,18.20
2022-09-09T01:16:22.749Z,18.20
2022-09-09T01:18:30.016Z,18.10
2022-09-09T01:20:46.447Z,18.10
2022-09-09T01:23:04.866Z,18.10
2022-09-09T01:25:29.072Z,18.10
2022-09-09T01:27:35.477Z,18.10
2022-09-09T01:29:38.671Z,18.10
2022-09-09T01:31:43.187Z,18.00
2022-09-09T01:33:46.102Z,18.00
2022-09-09T01:35:55.357Z,18.00
2022-09-09T01:37:58.287Z,17.90
2022-09-09T01:40:01.334Z,17.90
2022-09-09T01:42:05.817Z,17.90
2022-09-09T01:44:10.746Z,17.90
2022-09-09T01:46:15.362Z,17.90
2022-09-09T01:48:19.990Z,17.90
2022-09-09T01:50:23.411Z,17.90
2022-09-09T01:55:53.910Z,17.90
2022-09-09T01:58:10.545Z,17.80
2022-09-09T02:00:17.117Z,17.80
2022-09-09T02:02:24.917Z,17.80
2022-09-09T02:04:39.090Z,17.90
2022-09-09T02:06:42.924Z,17.90
2022-09-09T02:08:49.924Z,17.90
2022-09-09T02:11:00.725Z,17.80
2022-09-09T02:13:07.052Z,17.90
2022-09-09T02:15:19.471Z,17.90
2022-09-09T02:17:28.175Z,17.90
2022-09-09T02:19:34.667Z,17.90
2022-09-09T02:21:37.923Z,17.90
2022-09-09T02:23:43.065Z,17.90
2022-09-09T02:25:47.290Z,18.00
2022-09-09T02:27:52.779Z,18.00
2022-09-09T02:29:58.488Z,18.00
2022-09-09T02:32:06.459Z,18.00
2022-09-09T02:34:12.823Z,18.00
2022-09-09T02:36:18.004Z,18.10
2022-09-09T02:38:23.718Z,18.10
2022-09-09T02:40:26.605Z,18.10
2022-09-09T02:42:29.576Z,18.20
2022-09-09T02:44:32.474Z,18.20
2022-09-09T02:46:49.012Z,18.20
2022-09-09T02:49:00.603Z,18.30
2022-09-09T02:51:11.244Z,18.30
2022-09-09T02:53:19.192Z,18.40
2022-09-09T02:55:30.657Z,18.40
2022-09-09T02:57:36.137Z,18.30
2022-09-09T02:59:39.730Z,18.30
2022-09-09T03:01:43.888Z,18.40
2022-09-09T03:03:47.613Z,18.40
2022-09-09T03:05:52.647Z,18.40
2022-09-09T03:07:56.341Z,18.30
2022-09-09T03:10:02.622Z,18.40
2022-09-09T03:12:07.450Z,18.40
2022-09-09T03:14:12.431Z,18.40
2022-09-09T03:16:16.093Z,18.50
2022-09-09T03:18:19.213Z,18.50
2022-09-09T03:20:23.132Z,18.60
2022-09-09T03:22:28.394Z,18.60
2022-09-09T03:24:31.297Z,18.60
2022-09-09T03:26:34.431Z,18.60
2022-09-09T03:28:37.460Z,18.60
2022-09-09T03:30:40.397Z,18.60
2022-09-09T03:32:47.076Z,18.70
2022-09-09T03:34:51.742Z,18.70
2022-09-09T03:36:54.762Z,18.70
2022-09-09T03:39:00.217Z,18.80
2022-09-09T03:41:03.459Z,18.90
2022-09-09T03:43:09.191Z,18.90
2022-09-09T03:45:12.460Z,18.90
2022-09-09T03:47:22.658Z,18.90
2022-09-09T03:49:27.403Z,18.90
2022-09-09T03:51:31.502Z,19.00
2022-09-09T03:53:35.288Z,19.00
2022-09-09T03:55:39.384Z,19.00
2022-09-09T03:57:42.146Z,19.10
2022-09-09T03:59:44.898Z,19.20
2022-09-09T04:01:48.189Z,19.20
2022-09-09T04:03:51.338Z,19.20
2022-09-09T04:05:54.385Z,19.20
2022-09-09T04:07:57.228Z,19.20
2022-09-09T04:09:59.991Z,19.30
2022-09-09T04:12:04.489Z,19.30
2022-09-09T04:14:07.908Z,19.30
2022-09-09T04:16:14.115Z,19.30
2022-09-09T04:18:19.922Z,19.40
2022-09-09T04:20:23.440Z,19.40
2022-09-09T04:22:28.215Z,19.30
2022-09-09T04:24:30.946Z,19.30
2022-09-09T04:26:33.850Z,19.30
2022-09-09T04:28:39.531Z,19.20
2022-09-09T04:30:42.429Z,19.30
2022-09-09T04:32:45.139Z,19.20
2022-09-09T04:34:48.718Z,19.20
2022-09-09T04:36:52.878Z,19.20
2022-09-09T04:38:55.598Z,19.20
2022-09-09T04:40:58.497Z,19.20
2022-09-09T04:43:02.109Z,19.20
2022-09-09T04:45:07.655Z,19.20
2022-09-09T04:47:10.565Z,19.20
2022-09-09T04:49:15.208Z,19.20
2022-09-09T04:51:18.198Z,19.20
2022-09-09T04:53:20.933Z,19.20
2022-09-09T04:55:23.742Z,19.10
2022-09-09T04:57:26.531Z,19.00
2022-09-09T04:59:29.270Z,19.10
2022-09-09T05:01:33.351Z,19.00
2022-09-09T05:03:36.366Z,19.00
2022-09-09T05:05:39.127Z,19.00
2022-09-09T05:07:42.670Z,19.00
2022-09-09T05:09:46.298Z,19.00
2022-09-09T05:11:49.843Z,19.00
2022-09-09T05:13:54.657Z,19.00
2022-09-09T05:15:57.417Z,19.00
2022-09-09T05:18:03.320Z,19.00
2022-09-09T05:20:09.897Z,19.10
2022-09-09T05:22:14.046Z,19.10
2022-09-09T05:24:16.827Z,19.10
2022-09-09T05:26:22.809Z,19.00
2022-09-09T05:28:26.731Z,19.10
2022-09-09T05:30:29.528Z,19.10
2022-09-09T05:32:35.117Z,19.10
2022-09-09T05:34:40.426Z,19.10
2022-09-09T05:36:46.154Z,19.20
2022-09-09T05:38:50.217Z,19.20
2022-09-09T05:40:58.118Z,19.20
2022-09-09T05:43:02.927Z,19.30
2022-09-09T05:45:06.395Z,19.40
2022-09-09T05:47:10.118Z,19.30
2022-09-09T05:49:16.758Z,19.40
2022-09-09T05:51:22.927Z,19.40
2022-09-09T05:53:26.127Z,19.50
2022-09-09T05:55:28.881Z,19.50
2022-09-09T05:57:31.557Z,19.50
2022-09-09T05:59:34.325Z,19.50
2022-09-09T06:01:41.490Z,19.60
2022-09-09T06:03:46.047Z,19.60
2022-09-09T06:05:48.725Z,19.70
2022-09-09T06:07:56.094Z,19.70
2022-09-09T06:10:00.057Z,19.80
2022-09-09T06:12:03.021Z,19.80
2022-09-09T06:14:06.686Z,19.80
2022-09-09T06:16:12.375Z,19.90
2022-09-09T06:18:15.348Z,20.00
2022-09-09T06:20:20.794Z,20.00
2022-09-09T06:22:23.589Z,20.00
2022-09-09T06:24:27.679Z,20.00
2022-09-09T06:26:32.657Z,20.00
2022-09-09T06:28:35.945Z,20.10
2022-09-09T06:30:39.454Z,20.10
2022-09-09T06:32:42.196Z,20.10
2022-09-09T06:34:46.361Z,20.20
2022-09-09T06:36:49.176Z,20.20
2022-09-09T06:38:52.214Z,20.30
2022-09-09T06:40:58.848Z,20.30
2022-09-09T06:43:02.737Z,20.30
2022-09-09T06:45:05.978Z,20.30
2022-09-09T06:47:08.992Z,20.30
2022-09-09T06:49:11.928Z,20.30
2022-09-09T06:51:19.737Z,20.30
2022-09-09T06:53:23.190Z,20.30
2022-09-09T06:55:25.970Z,20.30
2022-09-09T06:57:38.174Z,20.30
2022-09-09T06:59:43.498Z,20.40
2022-09-09T07:01:49.467Z,20.50
2022-09-09T07:03:55.734Z,20.60
2022-09-09T07:05:58.923Z,20.60
2022-09-09T07:08:01.613Z,20.70
2022-09-09T07:10:05.782Z,20.80
2022-09-09T07:12:08.586Z,21.00
2022-09-09T07:14:14.506Z,21.10
2022-09-09T07:16:19.333Z,21.20
2022-09-09T07:18:22.329Z,21.30
2022-09-09T07:20:25.061Z,21.40
2022-09-09T07:22:29.531Z,21.40
2022-09-09T07:24:32.713Z,21.40
2022-09-09T07:26:36.243Z,21.50
2022-09-09T07:28:39.899Z,21.50
2022-09-09T07:30:44.267Z,21.60
2022-09-09T07:32:47.120Z,21.60
2022-09-09T07:34:51.208Z,21.70
2022-09-09T07:36:53.968Z,21.70
2022-09-09T07:38:58.248Z,21.70
2022-09-09T07:41:06.634Z,21.80
2022-09-09T07:43:09.751Z,21.90
2022-09-09T07:45:12.873Z,21.90
2022-09-09T07:47:16.983Z,21.90
2022-09-09T07:49:26.203Z,21.90
2022-09-09T07:51:33.142Z,22.00
2022-09-09T07:53:37.424Z,21.90
2022-09-09T07:55:40.320Z,21.90
2022-09-09T07:57:43.133Z,21.90
2022-09-09T07:59:46.427Z,22.00
2022-09-09T08:01:55.441Z,22.10
2022-09-09T08:04:02.554Z,22.20
2022-09-09T08:06:07.923Z,22.30
2022-09-09T08:08:10.793Z,22.40
2022-09-09T08:10:15.488Z,22.60
2022-09-09T08:12:19.256Z,22.70
2022-09-09T08:14:22.975Z,22.80
2022-09-09T08:16:27.472Z,22.90
2022-09-09T08:18:30.268Z,22.90
2022-09-09T08:20:34.395Z,22.90
2022-09-09T08:22:38.628Z,23.00
2022-09-09T08:24:42.017Z,22.90
2022-09-09T08:26:46.560Z,23.00
2022-09-09T08:28:50.202Z,23.10
2022-09-09T08:30:54.235Z,23.10
2022-09-09T08:32:56.983Z,23.20
2022-09-09T08:35:08.024Z,23.20
2022-09-09T08:37:12.459Z,23.10
2022-09-09T08:39:16.601Z,23.10
2022-09-09T08:41:44.501Z,23.20
2022-09-09T08:43:51.682Z,23.10
2022-09-09T08:46:01.033Z,23.20
2022-09-09T08:48:13.089Z,23.20
2022-09-09T08:50:26.982Z,23.20
2022-09-09T08:52:32.841Z,23.20
2022-09-09T08:54:51.600Z,23.30
2022-09-09T08:56:55.208Z,23.40
2022-09-09T08:58:59.234Z,23.30
2022-09-09T09:01:24.436Z,23.30
2022-09-09T09:03:36.100Z,23.30
2022-09-09T09:05:47.654Z,23.30
2022-09-09T09:08:01.740Z,23.40
2022-09-09T09:10:30.969Z,23.30
2022-09-09T09:12:40.378Z,23.40
2022-09-09T09:14:45.217Z,23.40
2022-09-09T09:16:54.636Z,23.50
2022-09-09T09:19:00.811Z,23.60
2022-09-09T09:21:12.416Z,23.60
2022-09-09T09:23:23.335Z,23.70
2022-09-09T09:25:33.667Z,23.80
2022-09-09T09:27:38.708Z,23.70
2022-09-09T09:30:10.066Z,23.70
2022-09-09T09:32:06.072Z,23.60
2022-09-09T09:34:12.057Z,23.50
2022-09-09T09:36:16.207Z,23.60
2022-09-09T09:40:52.102Z,23.70
2022-09-09T09:42:56.731Z,23.90
2022-09-09T09:45:09.923Z,23.90
2022-09-09T09:47:15.354Z,23.90
2022-09-09T09:49:18.305Z,24.00
2022-09-09T09:51:24.409Z,24.00
2022-09-09T09:53:30.351Z,24.00
2022-09-09T09:55:35.867Z,24.00
2022-09-09T09:57:39.143Z,24.20
2022-09-09T09:59:42.002Z,24.30
2022-09-09T10:01:44.981Z,24.20
2022-09-09T10:03:53.549Z,24.30
2022-09-09T10:05:57.209Z,24.40
2022-09-09T10:08:11.465Z,24.30
2022-09-09T10:10:22.760Z,24.40
2022-09-09T10:12:37.294Z,24.50
2022-09-09T10:14:49.577Z,24.60
2022-09-09T10:17:15.525Z,24.60
2022-09-09T10:19:22.809Z,24.70
2022-09-09T10:21:45.878Z,24.70
2022-09-09T10:24:04.249Z,24.70
2022-09-09T10:26:23.903Z,24.70
2022-09-09T10:28:41.656Z,24.70
2022-09-09T10:30:52.083Z,24.80
2022-09-09T10:33:06.570Z,24.90
2022-09-09T10:35:16.558Z,25.10
2022-09-09T10:37:30.816Z,25.10
2022-09-09T10:39:42.230Z,25.10
2022-09-09T10:41:58.593Z,25.20
2022-09-09T10:44:31.015Z,25.30
2022-09-09T10:46:43.282Z,25.30
2022-09-09T10:49:01.233Z,25.40
2022-09-09T10:51:17.704Z,25.40
2022-09-09T10:53:31.815Z,25.60
2022-09-09T10:55:41.225Z,25.70
2022-09-09T10:57:48.880Z,25.80
2022-09-09T10:59:57.844Z,25.80
2022-09-09T11:02:06.957Z,25.80
2022-09-09T11:04:17.848Z,25.70
2022-09-09T11:06:25.515Z,25.60
2022-09-09T11:08:30.719Z,25.60
2022-09-09T11:10:42.512Z,25.70
2022-09-09T11:12:48.990Z,25.70
2022-09-09T11:14:58.377Z,25.50
2022-09-09T11:17:06.385Z,25.50
2022-09-09T11:19:16.351Z,25.60
2022-09-09T11:21:23.526Z,25.70
2022-09-09T11:23:33.345Z,25.90
2022-09-09T11:25:39.431Z,26.00
2022-09-09T11:27:53.497Z,26.00
2022-09-09T11:30:08.413Z,26.10
2022-09-09T11:32:31.404Z,26.00
2022-09-09T11:34:41.507Z,26.10
2022-09-09T11:37:07.660Z,26.20
2022-09-09T11:39:33.922Z,26.40
2022-09-09T11:41:38.724Z,26.40
2022-09-09T11:43:45.213Z,26.40
2022-09-09T11:46:00.166Z,26.40
2022-09-09T11:48:06.997Z,26.40
2022-09-09T11:50:13.275Z,26.40
2022-09-09T11:52:26.546Z,26.40
2022-09-09T11:54:33.276Z,26.30
2022-09-09T11:56:44.612Z,26.30
2022-09-09T11:58:58.689Z,26.40
2022-09-09T12:01:01.635Z,26.50
2022-09-09T12:03:04.852Z,26.50
2022-09-09T12:05:10.695Z,26.70
2022-09-09T12:07:34.143Z,26.90
2022-09-09T12:09:51.119Z,27.00
2022-09-09T12:11:54.464Z,27.10
2022-09-09T12:14:02.190Z,27.10
2022-09-09T12:16:06.734Z,27.00
2022-09-09T12:18:16.611Z,27.00
2022-09-09T12:20:22.644Z,27.00
2022-09-09T12:22:35.294Z,27.00
2022-09-09T12:24:44.508Z,27.00
2022-09-09T12:26:58.740Z,27.00
2022-09-09T12:29:14.462Z,26.90
2022-09-09T12:31:23.827Z,26.90
2022-09-09T12:33:35.419Z,26.90
2022-09-09T12:35:42.422Z,26.90
2022-09-09T12:37:54.847Z,26.90
2022-09-09T12:39:59.507Z,26.90
2022-09-09T12:42:05.257Z,26.90
2022-09-09T12:44:12.192Z,26.70
2022-09-09T12:46:24.455Z,26.70
2022-09-09T12:48:35.815Z,26.70
2022-09-09T12:50:46.210Z,26.50
2022-09-09T12:52:51.125Z,26.50
2022-09-09T12:54:54.809Z,26.60
2022-09-09T12:56:57.844Z,26.80
2022-09-09T12:59:01.849Z,26.80
2022-09-09T13:01:07.938Z,26.90
2022-09-09T13:03:19.871Z,27.00
2022-09-09T13:05:25.623Z,27.10
2022-09-09T13:07:28.914Z,27.20
2022-09-09T13:09:31.646Z,27.20
2022-09-09T13:11:40.223Z,27.20
2022-09-09T13:13:45.029Z,27.40
2022-09-09T13:15:53.084Z,27.30
2022-09-09T13:17:59.062Z,27.30
2022-09-09T13:20:02.115Z,27.30
2022-09-09T13:22:14.127Z,27.30
2022-09-09T13:24:31.231Z,27.30
2022-09-09T13:26:34.055Z,27.10
2022-09-09T13:28:36.965Z,27.10
2022-09-09T13:30:41.945Z,27.10
2022-09-09T13:32:44.727Z,27.10
2022-09-09T13:34:54.865Z,27.10
2022-09-09T13:37:03.310Z,27.10
2022-09-09T13:39:06.399Z,27.10
2022-09-09T13:41:12.607Z,27.00
2022-09-09T13:43:22.116Z,27.20
2022-09-09T13:45:28.207Z,27.40
2022-09-09T13:47:34.129Z,27.50
2022-09-09T13:49:36.883Z,27.50
2022-09-09T13:51:43.185Z,27.60
2022-09-09T13:53:48.112Z,27.60
2022-09-09T13:55:53.396Z,27.70
2022-09-09T13:57:57.793Z,27.80
2022-09-09T14:00:04.970Z,27.60
2022-09-09T14:02:09.464Z,27.40
2022-09-09T14:04:12.366Z,27.30
2022-09-09T14:06:15.097Z,27.20
2022-09-09T14:08:24.775Z,27.20
2022-09-09T14:10:27.533Z,27.20
2022-09-09T14:12:30.406Z,27.20
2022-09-09T14:14:33.170Z,27.30
2022-09-09T14:16:36.513Z,27.50
2022-09-09T14:18:39.908Z,27.50
2022-09-09T14:20:43.012Z,27.40
2022-09-09T14:22:46.071Z,27.50
2022-09-09T14:24:50.323Z,27.50
2022-09-09T14:26:53.715Z,27.50
2022-09-09T14:28:57.171Z,27.40
2022-09-09T14:31:01.838Z,27.40
2022-09-09T14:33:05.095Z,27.30
2022-09-09T14:35:08.482Z,27.30
2022-09-09T14:37:11.471Z,27.20
2022-09-09T14:39:14.154Z,27.20
2022-09-09T14:41:20.615Z,27.10
2022-09-09T14:43:23.307Z,27.10
2022-09-09T14:45:27.238Z,26.90
2022-09-09T14:47:31.153Z,26.80
2022-09-09T14:49:33.917Z,26.70
2022-09-09T14:51:36.616Z,26.60
2022-09-09T14:53:39.472Z,26.50
2022-09-09T14:55:42.158Z,26.50
2022-09-09T14:57:46.345Z,26.50
2022-09-09T14:59:51.350Z,26.50
2022-09-09T15:01:54.367Z,26.60
2022-09-09T15:03:58.967Z,26.50
2022-09-09T15:06:07.738Z,26.60
2022-09-09T15:08:10.436Z,26.50
2022-09-09T15:10:13.503Z,26.50
2022-09-09T15:12:16.453Z,26.40
2022-09-09T15:14:23.875Z,26.30
2022-09-09T15:16:30.135Z,26.30
2022-09-09T15:18:34.038Z,26.30
2022-09-09T15:20:40.242Z,26.30
2022-09-09T15:22:43.316Z,26.30
2022-09-09T15:24:46.015Z,26.30
2022-09-09T15:26:48.899Z,26.30
2022-09-09T15:28:52.156Z,26.20
2022-09-09T15:30:57.753Z,26.20
2022-09-09T15:33:00.481Z,26.00
2022-09-09T15:35:03.501Z,25.90
2022-09-09T15:37:07.230Z,25.80
2022-09-09T15:39:13.831Z,25.80
2022-09-09T15:41:17.862Z,25.80
2022-09-09T15:43:20.568Z,25.70
2022-09-09T15:45:23.416Z,25.80
2022-09-09T15:47:27.827Z,25.80
2022-09-09T15:49:30.934Z,25.80
2022-09-09T15:51:43.275Z,25.70
2022-09-09T15:53:46.877Z,25.60
2022-09-09T15:55:52.212Z,25.60
2022-09-09T15:57:58.698Z,25.70
2022-09-09T16:00:01.426Z,25.80
2022-09-09T16:02:05.204Z,25.80
2022-09-09T16:04:09.670Z,25.90
2022-09-09T16:06:12.844Z,25.80
2022-09-09T16:08:15.577Z,25.70
2022-09-09T16:10:18.378Z,25.70
2022-09-09T16:12:21.109Z,25.70
2022-09-09T16:14:23.939Z,25.70
2022-09-09T16:16:29.926Z,25.80
2022-09-09T16:18:37.103Z,25.80
2022-09-09T16:20:43.717Z,25.70
2022-09-09T16:22:46.899Z,25.70
2022-09-09T16:24:49.651Z,25.70
2022-09-09T16:26:54.174Z,25.70
2022-09-09T16:28:58.468Z,25.70
2022-09-09T16:31:05.612Z,25.60
2022-09-09T16:33:08.966Z,25.60
2022-09-09T16:35:11.933Z,25.60
2022-09-09T16:37:15.936Z,25.50
2022-09-09T16:39:20.426Z,25.50
2022-09-09T16:41:23.784Z,25.50
2022-09-09T16:43:29.167Z,25.40
2022-09-09T16:45:33.144Z,25.30
2022-09-09T16:47:35.927Z,25.20
2022-09-09T16:49:39.511Z,25.10
2022-09-09T16:51:43.945Z,25.10
2022-09-09T16:53:48.211Z,25.10
2022-09-09T16:55:51.657Z,25.10
2022-09-09T16:57:54.976Z,24.90
2022-09-09T17:00:00.392Z,24.90
2022-09-09T17:02:05.938Z,24.90
2022-09-09T17:04:11.733Z,24.90
2022-09-09T17:06:16.951Z,24.90
2022-09-09T17:08:19.706Z,24.90
2022-09-09T17:10:23.766Z,25.00
2022-09-09T17:12:27.159Z,25.00
2022-09-09T17:14:32.190Z,25.00
2022-09-09T17:16:36.099Z,25.00
2022-09-09T17:18:39.416Z,25.00
2022-09-09T17:20:47.008Z,25.00
2022-09-09T17:22:50.891Z,25.00
2022-09-09T17:24:53.685Z,24.90
2022-09-09T17:26:58.275Z,24.90
2022-09-09T17:29:02.646Z,24.80
2022-09-09T17:31:07.120Z,24.70
2022-09-09T17:33:11.055Z,24.60
2022-09-09T17:35:14.153Z,24.60
2022-09-09T17:37:16.974Z,24.50
2022-09-09T17:39:19.802Z,24.40
2022-09-09T17:41:24.871Z,24.40
2022-09-09T17:43:29.004Z,24.30
2022-09-09T17:45:32.854Z,24.30
2022-09-09T17:47:35.783Z,24.30
2022-09-09T17:49:41.724Z,24.20
2022-09-09T17:51:45.711Z,24.20
2022-09-09T17:53:50.441Z,24.10
2022-09-09T17:55:53.374Z,24.10
2022-09-09T17:57:56.105Z,24.00
2022-09-09T18:00:00.172Z,24.00
2022-09-09T18:02:05.513Z,23.90
2022-09-09T18:04:10.584Z,23.80
2022-09-09T18:06:17.291Z,23.70
2022-09-09T18:08:20.018Z,23.60
2022-09-09T18:10:22.726Z,23.50
2022-09-09T18:12:25.483Z,23.50
2022-09-09T18:14:31.146Z,23.40
2022-09-09T18:16:37.624Z,23.40
2022-09-09T18:18:40.544Z,23.30
2022-09-09T18:20:44.205Z,23.30
2022-09-09T18:22:46.890Z,23.30
2022-09-09T18:24:50.313Z,23.30
2022-09-09T18:26:53.397Z,23.20
2022-09-09T18:28:59.432Z,23.20
2022-09-09T18:31:05.324Z,23.10
2022-09-09T18:33:09.386Z,23.00
2022-09-09T18:35:12.141Z,23.00
2022-09-09T18:37:15.411Z,22.90
2022-09-09T18:39:19.526Z,22.80
2022-09-09T18:41:24.279Z,22.70
2022-09-09T18:43:27.121Z,22.70
2022-09-09T18:45:29.873Z,22.60
2022-09-09T18:47:32.770Z,22.60
2022-09-09T18:49:37.346Z,22.60
2022-09-09T18:51:42.740Z,22.60
2022-09-09T18:53:51.292Z,22.60
2022-09-09T18:56:00.119Z,22.50
2022-09-09T18:58:03.694Z,22.50
2022-09-09T19:00:09.640Z,22.50
2022-09-09T19:02:12.731Z,22.40
2022-09-09T19:04:15.963Z,22.40
2022-09-09T19:06:23.674Z,22.40
2022-09-09T19:08:26.884Z,22.40
2022-09-09T19:10:32.351Z,22.40
2022-09-09T19:12:35.555Z,22.40
2022-09-09T19:14:38.759Z,22.40
2022-09-09T19:16:41.556Z,22.30
2022-09-09T19:18:44.829Z,22.30
2022-09-09T19:20:47.658Z,22.20
2022-09-09T19:22:53.193Z,22.20
2022-09-09T19:24:56.619Z,22.20
2022-09-09T19:27:02.683Z,22.20
2022-09-09T19:29:05.483Z,22.20
2022-09-09T19:31:10.207Z,22.20
2022-09-09T19:33:12.935Z,22.10
2022-09-09T19:35:15.636Z,22.10
2022-09-09T19:37:18.985Z,22.00
2022-09-09T19:39:23.102Z,22.00
2022-09-09T19:41:28.662Z,22.00
2022-09-09T19:43:32.371Z,21.90
2022-09-09T19:45:35.425Z,21.90
2022-09-09T19:47:40.390Z,21.90
2022-09-09T19:49:47.049Z,21.90
2022-09-09T19:51:50.107Z,21.80
2022-09-09T19:53:56.206Z,21.70
2022-09-09T19:56:00.531Z,21.70
2022-09-09T19:58:05.819Z,21.70
2022-09-09T20:00:10.873Z,21.70
2022-09-09T20:02:15.458Z,21.60
2022-09-09T20:04:18.751Z,21.60
2022-09-09T20:06:23.660Z,21.50
2022-09-09T20:08:27.364Z,21.50
2022-09-09T20:10:31.872Z,21.40
2022-09-09T20:12:36.009Z,21.40
2022-09-09T20:14:39.983Z,21.30
2022-09-09T20:16:45.680Z,21.30
2022-09-09T20:18:50.856Z,21.30
2022-09-09T20:20:53.650Z,21.30
2022-09-09T20:22:57.390Z,21.30
2022-09-09T20:25:01.312Z,21.20
2022-09-09T20:27:07.094Z,21.20
2022-09-09T20:29:16.146Z,21.20
2022-09-09T20:31:21.662Z,21.20
2022-09-09T20:33:24.483Z,21.10
2022-09-09T20:35:28.970Z,21.10
2022-09-09T20:37:31.959Z,21.10
2022-09-09T20:39:38.984Z,21.00
2022-09-09T20:41:44.417Z,21.00
2022-09-09T20:43:49.025Z,21.00
2022-09-09T20:45:57.500Z,21.00
2022-09-09T20:48:00.260Z,20.90
2022-09-09T20:50:03.012Z,20.90
2022-09-09T20:52:06.935Z,20.90
2022-09-09T20:54:13.884Z,20.90
2022-09-09T20:56:17.243Z,20.90
2022-09-09T20:58:20.078Z,20.90
2022-09-09T21:00:22.847Z,20.90
2022-09-09T21:02:27.018Z,20.90
2022-09-09T21:04:29.956Z,20.90
2022-09-09T21:06:32.812Z,20.90
2022-09-09T21:08:36.804Z,20.90
2022-09-09T21:10:43.527Z,20.90
2022-09-09T21:12:46.714Z,20.90
2022-09-09T21:14:49.567Z,21.00
2022-09-09T21:16:52.390Z,21.00
2022-09-09T21:18:56.716Z,21.00
2022-09-09T21:20:59.760Z,21.10
2022-09-09T21:23:02.495Z,21.10
2022-09-09T21:25:06.106Z,21.10
2022-09-09T21:27:08.867Z,21.10
2022-09-09T21:29:13.078Z,21.10
2022-09-09T21:31:17.160Z,21.10
2022-09-09T21:33:22.209Z,21.10
2022-09-09T21:35:26.946Z,21.10
2022-09-09T21:37:30.062Z,21.10
2022-09-09T21:39:32.812Z,21.10
2022-09-09T21:41:36.489Z,21.10
2022-09-09T21:43:40.187Z,21.10
2022-09-09T21:45:44.072Z,21.10
2022-09-09T21:47:48.438Z,21.10
2022-09-09T21:49:51.443Z,21.10
2022-09-09T21:51:58.214Z,21.10
2022-09-09T21:54:01.262Z,21.10
2022-09-09T21:56:06.348Z,21.10
2022-09-09T21:58:09.621Z,21.20
2022-09-09T22:00:17.149Z,21.20
2022-09-09T22:02:20.143Z,21.20
2022-09-09T22:04:23.307Z,21.20
2022-09-09T22:06:26.317Z,21.20
2022-09-09T22:08:30.777Z,21.20
2022-09-09T22:10:33.751Z,21.20
2022-09-09T22:12:36.642Z,21.20
2022-09-09T22:14:39.875Z,21.30
2022-09-09T22:16:42.629Z,21.30
2022-09-09T22:18:46.154Z,21.30
2022-09-09T22:20:49.273Z,21.30
2022-09-09T22:22:52.338Z,21.20
2022-09-09T22:24:56.508Z,21.30
2022-09-09T22:26:59.457Z,21.20
2022-09-09T22:29:03.329Z,21.20
2022-09-09T22:31:06.913Z,21.20
2022-09-09T22:33:09.823Z,21.20
2022-09-09T22:35:12.870Z,21.10
2022-09-09T22:37:15.711Z,21.10
2022-09-09T22:39:18.442Z,21.10
2022-09-09T22:41:22.982Z,21.00
2022-09-09T22:43:25.791Z,21.00
2022-09-09T22:45:28.529Z,20.90
2022-09-09T22:47:31.264Z,20.90
2022-09-09T22:49:34.091Z,20.80
2022-09-09T22:51:36.810Z,20.80
2022-09-09T22:53:40.796Z,20.70
2022-09-09T22:55:43.806Z,20.70
2022-09-09T22:57:48.128Z,20.60
2022-09-09T22:59:51.100Z,20.60
2022-09-09T23:01:53.922Z,20.60
2022-09-09T23:03:59.325Z,20.60
2022-09-09T23:06:04.256Z,20.50
2022-09-09T23:08:07.189Z,20.50
2022-09-09T23:10:11.200Z,20.50
2022-09-09T23:12:14.855Z,20.40
2022-09-09T23:14:18.994Z,20.40
2022-09-09T23:16:24.183Z,20.30
2022-09-09T23:18:26.922Z,20.20
2022-09-09T23:20:33.349Z,20.20
2022-09-09T23:22:36.403Z,20.20
2022-09-09T23:24:39.708Z,20.20
2022-09-09T23:26:43.396Z,20.20
2022-09-09T23:28:46.704Z,20.10
2022-09-09T23:30:51.131Z,20.00
2022-09-09T23:32:53.881Z,19.90
2022-09-09T23:34:56.645Z,19.90
2022-09-09T23:36:59.541Z,19.90
2022-09-09T23:39:04.476Z,19.90
2022-09-09T23:41:09.616Z,19.80
2022-09-09T23:43:12.311Z,19.80
2022-09-09T23:45:15.697Z,19.80
2022-09-09T23:47:19.694Z,19.80
2022-09-09T23:49:22.761Z,19.80
2022-09-09T23:51:28.946Z,19.70
2022-09-09T23:53:31.809Z,19.70
2022-09-09T23:55:35.561Z,19.60
2022-09-09T23:57:39.053Z,19.60
2022-09-09T23:59:42.196Z,19.70
